Time,TemperatureF,DewpointF,PressureIn,WindDirection,WindDirectionDegrees,WindSpeedMPH,WindSpeedGustMPH,Humidity,HourlyPrecipIn,Conditions,Clouds,dailyrainin,SoftwareType,DateUTC
2013-08-24 00:14:00,58.0,54.0,30.37,NW,322,0.0,0.0,86,0.00,,,0.00,,2013-08-24 04:14:00,
2013-08-24 00:24:00,57.0,53.0,30.38,NW,321,0.0,0.0,88,0.00,,,0.00,,2013-08-24 04:24:00,
2013-08-24 00:44:00,57.0,53.0,30.38,NW,322,0.0,0.0,88,0.00,,,0.00,,2013-08-24 04:44:00,
2013-08-24 00:54:00,56.0,53.0,30.39,NW,322,0.0,0.0,89,0.00,,,0.00,,2013-08-24 04:54:00,
2013-08-24 01:13:00,56.0,53.0,30.40,NW,322,0.0,0.0,89,0.00,,,0.00,,2013-08-24 05:13:00,
2013-08-24 01:23:00,55.0,52.0,30.40,NW,322,0.0,0.0,90,0.00,,,0.00,,2013-08-24 05:23:00,
2013-08-24 01:43:00,55.0,52.0,30.41,NW,321,0.0,0.0,90,0.00,,,0.00,,2013-08-24 05:43:00,
2013-08-24 01:53:00,55.0,52.0,30.41,NW,322,0.0,0.0,91,0.00,,,0.00,,2013-08-24 05:53:00,
2013-08-24 02:12:00,54.0,51.0,30.41,NW,322,0.0,0.0,91,0.00,,,0.00,,2013-08-24 06:12:00,
2013-08-24 02:22:00,54.0,52.0,30.41,NW,322,0.0,0.0,92,0.00,,,0.00,,2013-08-24 06:22:00,
2013-08-24 02:42:00,54.0,52.0,30.42,NW,322,0.0,0.0,92,0.00,,,0.00,,2013-08-24 06:42:00,
2013-08-24 02:52:00,53.0,51.0,30.42,NW,322,0.0,0.0,92,0.00,,,0.00,,2013-08-24 06:52:00,
2013-08-24 03:12:00,53.0,51.0,30.42,NW,322,0.0,0.0,92,0.00,,,0.00,,2013-08-24 07:12:00,
2013-08-24 03:22:00,53.0,51.0,30.43,NW,322,0.0,0.0,92,0.00,,,0.00,,2013-08-24 07:22:00,
2013-08-24 03:43:00,53.0,51.0,30.43,NW,322,0.0,0.0,93,0.00,,,0.00,,2013-08-24 07:43:00,
2013-08-24 03:53:00,52.0,50.0,30.44,NW,322,0.0,0.0,93,0.00,,,0.00,,2013-08-24 07:53:00,
2013-08-24 04:12:00,52.0,50.0,30.44,NW,322,0.0,0.0,93,0.00,,,0.00,,2013-08-24 08:12:00,
2013-08-24 04:22:00,52.0,50.0,30.44,NW,321,0.0,0.0,94,0.00,,,0.00,,2013-08-24 08:22:00,
2013-08-24 04:52:00,52.0,51.0,30.46,NW,322,0.0,0.0,95,0.00,,,0.00,,2013-08-24 08:52:00,
2013-08-24 05:11:00,52.0,50.0,30.46,NW,322,0.0,0.0,94,0.00,,,0.00,,2013-08-24 09:11:00,
2013-08-24 05:22:00,51.0,50.0,30.47,NW,321,0.0,0.0,95,0.00,,,0.00,,2013-08-24 09:22:00,
2013-08-24 05:44:00,51.0,50.0,30.48,NW,322,0.0,0.0,95,0.00,,,0.00,,2013-08-24 09:44:00,
2013-08-24 05:53:00,51.0,50.0,30.48,NW,322,0.0,0.0,95,0.00,,,0.00,,2013-08-24 09:53:00,
2013-08-24 06:13:00,51.0,50.0,30.49,NW,322,0.0,0.0,95,0.00,,,0.00,,2013-08-24 10:13:00,
2013-08-24 06:23:00,50.0,49.0,30.50,NW,322,0.0,0.0,95,0.00,,,0.00,,2013-08-24 10:23:00,
2013-08-24 06:42:00,50.0,49.0,30.51,NW,322,0.0,0.0,95,0.00,,,0.00,,2013-08-24 10:42:00,
2013-08-24 06:53:00,50.0,49.0,30.52,NW,322,0.0,0.0,96,0.00,,,0.00,,2013-08-24 10:53:00,
2013-08-24 07:12:00,50.0,49.0,30.52,NW,322,0.0,0.0,96,0.00,,,0.00,,2013-08-24 11:12:00,
2013-08-24 07:22:00,51.0,50.0,30.53,NW,322,0.0,0.0,96,0.00,,,0.00,,2013-08-24 11:22:00,
2013-08-24 07:52:00,52.0,51.0,30.53,NW,322,0.0,0.0,95,0.00,,,0.00,,2013-08-24 11:52:00,
2013-08-24 08:12:00,53.0,51.0,30.54,NW,322,0.0,0.0,94,0.00,,,0.00,,2013-08-24 12:12:00,
2013-08-24 08:21:00,55.0,53.0,30.54,NW,322,0.0,0.0,93,0.00,,,0.00,,2013-08-24 12:21:00,
2013-08-24 08:42:00,55.0,52.0,30.55,NW,322,0.0,0.0,91,0.00,,,0.00,,2013-08-24 12:42:00,
2013-08-24 08:52:00,58.0,54.0,30.55,NW,322,0.0,0.0,86,0.00,,,0.00,,2013-08-24 12:52:00,
2013-08-24 09:11:00,59.0,54.0,30.55,NW,322,0.0,0.0,85,0.00,,,0.00,,2013-08-24 13:11:00,
2013-08-24 09:22:00,61.0,55.0,30.56,SW,224,0.0,1.0,80,0.00,,,0.00,,2013-08-24 13:22:00,
2013-08-24 09:42:00,62.0,55.0,30.56,WNW,285,0.0,2.0,79,0.00,,,0.00,,2013-08-24 13:42:00,
2013-08-24 09:52:00,63.0,56.0,30.56,WNW,299,0.0,1.0,77,0.00,,,0.00,,2013-08-24 13:52:00,
2013-08-24 10:11:00,64.0,54.0,30.56,NE,41,0.0,1.0,70,0.00,,,0.00,,2013-08-24 14:11:00,
2013-08-24 10:22:00,66.0,53.0,30.56,ENE,72,1.0,2.0,63,0.00,,,0.00,,2013-08-24 14:22:00,
2013-08-24 10:52:00,69.0,54.0,30.56,WNW,302,0.0,2.0,58,0.00,,,0.00,,2013-08-24 14:52:00,
2013-08-24 11:12:00,70.0,50.0,30.56,NE,48,2.0,3.0,50,0.00,,,0.00,,2013-08-24 15:12:00,
2013-08-24 11:22:00,71.0,51.0,30.56,SSW,195,0.0,2.0,50,0.00,,,0.00,,2013-08-24 15:22:00,
2013-08-24 11:45:00,71.0,52.0,30.56,East,84,1.0,6.0,52,0.00,,,0.00,,2013-08-24 15:45:00,
2013-08-24 11:54:00,72.0,52.0,30.56,ESE,115,1.0,2.0,49,0.00,,,0.00,,2013-08-24 15:54:00,
2013-08-24 12:23:00,74.0,52.0,30.56,ENE,63,1.0,3.0,46,0.00,,,0.00,,2013-08-24 16:23:00,
2013-08-24 12:53:00,75.0,51.0,30.55,WNW,284,0.0,3.0,43,0.00,,,0.00,,2013-08-24 16:53:00,
2013-08-24 13:12:00,75.0,52.0,30.55,East,88,1.0,3.0,45,0.00,,,0.00,,2013-08-24 17:12:00,
2013-08-24 13:23:00,76.0,51.0,30.55,East,87,1.0,3.0,42,0.00,,,0.00,,2013-08-24 17:23:00,
2013-08-24 13:42:00,76.0,52.0,30.55,WNW,302,0.0,2.0,43,0.00,,,0.00,,2013-08-24 17:42:00,
2013-08-24 13:52:00,76.0,52.0,30.55,WSW,255,1.0,3.0,44,0.00,,,0.00,,2013-08-24 17:52:00,
2013-08-24 14:13:00,76.0,49.0,30.55,ENE,77,2.0,3.0,38,0.00,,,0.00,,2013-08-24 18:13:00,
2013-08-24 14:22:00,77.0,51.0,30.55,WNW,285,1.0,2.0,41,0.00,,,0.00,,2013-08-24 18:22:00,
2013-08-24 14:42:00,78.0,55.0,30.55,NW,321,0.0,2.0,45,0.00,,,0.00,,2013-08-24 18:42:00,
2013-08-24 14:53:00,77.0,53.0,30.54,NW,316,1.0,3.0,43,0.00,,,0.00,,2013-08-24 18:53:00,
2013-08-24 15:12:00,77.0,51.0,30.53,NE,47,0.0,5.0,41,0.00,,,0.00,,2013-08-24 19:12:00,
2013-08-24 15:22:00,78.0,51.0,30.53,East,81,1.0,2.0,39,0.00,,,0.00,,2013-08-24 19:22:00,
2013-08-24 15:52:00,77.0,51.0,30.53,West,268,1.0,3.0,41,0.00,,,0.00,,2013-08-24 19:52:00,
2013-08-24 16:12:00,76.0,51.0,30.53,SW,231,0.0,1.0,42,0.00,,,0.00,,2013-08-24 20:12:00,
2013-08-24 16:22:00,75.0,55.0,30.53,WSW,255,0.0,2.0,50,0.00,,,0.00,,2013-08-24 20:22:00,
2013-08-24 16:42:00,74.0,52.0,30.53,West,277,0.0,1.0,47,0.00,,,0.00,,2013-08-24 20:42:00,
2013-08-24 16:53:00,74.0,54.0,30.53,West,260,0.0,1.0,50,0.00,,,0.00,,2013-08-24 20:53:00,
2013-08-24 17:22:00,73.0,54.0,30.53,SSE,165,0.0,0.0,52,0.00,,,0.00,,2013-08-24 21:22:00,
2013-08-24 17:55:00,72.0,55.0,30.52,SSW,204,0.0,0.0,55,0.00,,,0.00,,2013-08-24 21:55:00,
2013-08-24 18:14:00,72.0,58.0,30.52,SSW,204,0.0,0.0,61,0.00,,,0.00,,2013-08-24 22:14:00,
2013-08-24 18:43:00,71.0,57.0,30.52,SSE,148,0.0,0.0,62,0.00,,,0.00,,2013-08-24 22:43:00,
2013-08-24 18:53:00,70.0,55.0,30.52,East,84,0.0,1.0,60,0.00,,,0.00,,2013-08-24 22:53:00,
2013-08-24 19:12:00,69.0,55.0,30.52,East,83,0.0,1.0,61,0.00,,,0.00,,2013-08-24 23:12:00,
2013-08-24 19:22:00,68.0,54.0,30.53,East,83,0.0,0.0,61,0.00,,,0.00,,2013-08-24 23:22:00,
2013-08-24 19:43:00,67.0,54.0,30.53,East,84,0.0,0.0,63,0.00,,,0.00,,2013-08-24 23:43:00,
2013-08-24 19:53:00,65.0,54.0,30.53,East,83,0.0,0.0,68,0.00,,,0.00,,2013-08-24 23:53:00,
2013-08-24 20:12:00,64.0,54.0,30.53,East,83,0.0,0.0,70,0.00,,,0.00,,2013-08-25 00:12:00,
2013-08-24 20:22:00,63.0,54.0,30.54,East,84,0.0,0.0,73,0.00,,,0.00,,2013-08-25 00:22:00,
2013-08-24 20:42:00,62.0,53.0,30.55,East,84,0.0,0.0,73,0.00,,,0.00,,2013-08-25 00:42:00,
2013-08-24 20:52:00,61.0,53.0,30.55,East,83,0.0,0.0,76,0.00,,,0.00,,2013-08-25 00:52:00,
2013-08-24 21:11:00,60.0,53.0,30.56,East,83,0.0,0.0,77,0.00,,,0.00,,2013-08-25 01:11:00,
2013-08-24 21:22:00,59.0,53.0,30.56,East,83,0.0,0.0,80,0.00,,,0.00,,2013-08-25 01:22:00,
2013-08-24 21:42:00,59.0,54.0,30.56,East,83,0.0,0.0,82,0.00,,,0.00,,2013-08-25 01:42:00,
2013-08-24 21:52:00,58.0,53.0,30.56,East,83,0.0,0.0,84,0.00,,,0.00,,2013-08-25 01:52:00,
2013-08-24 22:11:00,57.0,52.0,30.57,East,83,0.0,0.0,84,0.00,,,0.00,,2013-08-25 02:11:00,
2013-08-24 22:22:00,56.0,52.0,30.57,East,83,0.0,0.0,87,0.00,,,0.00,,2013-08-25 02:22:00,
2013-08-24 22:42:00,56.0,52.0,30.57,East,84,0.0,0.0,87,0.00,,,0.00,,2013-08-25 02:42:00,
2013-08-24 22:52:00,55.0,52.0,30.57,East,83,0.0,0.0,89,0.00,,,0.00,,2013-08-25 02:52:00,
2013-08-24 23:23:00,55.0,52.0,30.57,East,83,0.0,0.0,90,0.00,,,0.00,,2013-08-25 03:23:00,
2013-08-24 23:44:00,54.0,51.0,30.57,East,83,0.0,0.0,89,0.00,,,0.00,,2013-08-25 03:44:00,
2013-08-24 23:54:00,54.0,51.0,30.58,East,83,0.0,0.0,90,0.00,,,0.00,,2013-08-25 03:54:00,